sensor_id;sensor_type;location;lat;lon;timestamp;P1;durP1;ratioP1;P2;durP2;ratioP2
4422;SDS011;2224;49.814;8.650;2024-01-10T00:00:36;21.63;;;14.83;;
4422;SDS011;2224;49.814;8.650;2024-01-10T00:03:02;28.25;;;15.90;;
4422;SDS011;2224;49.814;8.650;2024-01-10T00:05:28;37.17;;;20.77;;
4422;SDS011;2224;49.814;8.650;2024-01-10T00:07:53;25.47;;;15.77;;
4422;SDS011;2224;49.814;8.650;2024-01-10T00:10:19;26.77;;;18.70;;
4422;SDS011;2224;49.814;8.650;2024-01-10T00:12:44;24.73;;;14.77;;
4422;SDS011;2224;49.814;8.650;2024-01-10T00:15:10;28.10;;;16.70;;
4422;SDS011;2224;49.814;8.650;2024-01-10T00:17:35;28.63;;;16.90;;
4422;SDS011;2224;49.814;8.650;2024-01-10T00:20:00;32.53;;;16.70;;
4422;SDS011;2224;49.814;8.650;2024-01-10T00:22:26;29.40;;;16.90;;
4422;SDS011;2224;49.814;8.650;2024-01-10T00:24:51;21.57;;;15.80;;
4422;SDS011;2224;49.814;8.650;2024-01-10T00:27:16;23.60;;;14.73;;
4422;SDS011;2224;49.814;8.650;2024-01-10T00:29:42;25.13;;;16.10;;
4422;SDS011;2224;49.814;8.650;2024-01-10T00:32:07;25.03;;;15.87;;
4422;SDS011;2224;49.814;8.650;2024-01-10T00:34:33;28.13;;;15.60;;
4422;SDS011;2224;49.814;8.650;2024-01-10T00:36:58;26.97;;;15.90;;
4422;SDS011;2224;49.814;8.650;2024-01-10T00:39:23;26.93;;;16.50;;
4422;SDS011;2224;49.814;8.650;2024-01-10T00:41:49;28.73;;;15.97;;
4422;SDS011;2224;49.814;8.650;2024-01-10T00:44:14;24.40;;;14.50;;
4422;SDS011;2224;49.814;8.650;2024-01-10T00:46:39;24.47;;;15.10;;
4422;SDS011;2224;49.814;8.650;2024-01-10T00:49:05;25.53;;;15.37;;
4422;SDS011;2224;49.814;8.650;2024-01-10T00:51:30;28.97;;;16.53;;
4422;SDS011;2224;49.814;8.650;2024-01-10T00:53:55;26.60;;;15.83;;
4422;SDS011;2224;49.814;8.650;2024-01-10T00:56:21;25.10;;;15.17;;
4422;SDS011;2224;49.814;8.650;2024-01-10T00:58:46;26.10;;;16.40;;
4422;SDS011;2224;49.814;8.650;2024-01-10T01:01:11;25.70;;;16.37;;
4422;SDS011;2224;49.814;8.650;2024-01-10T01:03:37;27.77;;;15.10;;
4422;SDS011;2224;49.814;8.650;2024-01-10T01:06:02;34.43;;;17.07;;
4422;SDS011;2224;49.814;8.650;2024-01-10T01:08:28;27.83;;;16.30;;
4422;SDS011;2224;49.814;8.650;2024-01-10T01:10:53;23.63;;;15.87;;
4422;SDS011;2224;49.814;8.650;2024-01-10T01:13:19;27.90;;;17.87;;
4422;SDS011;2224;49.814;8.650;2024-01-10T01:15:44;26.40;;;16.60;;
4422;SDS011;2224;49.814;8.650;2024-01-10T01:18:09;24.80;;;15.33;;
4422;SDS011;2224;49.814;8.650;2024-01-10T01:20:37;25.38;;;16.00;;
4422;SDS011;2224;49.814;8.650;2024-01-10T01:23:02;26.93;;;17.23;;
4422;SDS011;2224;49.814;8.650;2024-01-10T01:25:28;29.37;;;16.60;;
4422;SDS011;2224;49.814;8.650;2024-01-10T01:27:53;24.50;;;15.40;;
4422;SDS011;2224;49.814;8.650;2024-01-10T01:30:18;26.80;;;16.90;;
4422;SDS011;2224;49.814;8.650;2024-01-10T01:32:46;28.23;;;15.88;;
4422;SDS011;2224;49.814;8.650;2024-01-10T01:35:11;36.60;;;15.63;;
4422;SDS011;2224;49.814;8.650;2024-01-10T01:37:37;30.67;;;16.27;;
4422;SDS011;2224;49.814;8.650;2024-01-10T01:40:02;29.47;;;17.83;;
4422;SDS011;2224;49.814;8.650;2024-01-10T01:42:28;20.67;;;14.83;;
4422;SDS011;2224;49.814;8.650;2024-01-10T01:44:53;20.83;;;13.47;;
4422;SDS011;2224;49.814;8.650;2024-01-10T01:47:18;29.33;;;17.07;;
4422;SDS011;2224;49.814;8.650;2024-01-10T01:49:44;23.60;;;14.93;;
4422;SDS011;2224;49.814;8.650;2024-01-10T01:52:10;24.23;;;15.47;;
4422;SDS011;2224;49.814;8.650;2024-01-10T01:54:35;31.13;;;16.38;;
4422;SDS011;2224;49.814;8.650;2024-01-10T01:57:01;26.03;;;18.30;;
4422;SDS011;2224;49.814;8.650;2024-01-10T01:59:26;23.90;;;15.57;;
4422;SDS011;2224;49.814;8.650;2024-01-10T02:01:52;29.73;;;17.33;;
4422;SDS011;2224;49.814;8.650;2024-01-10T02:04:19;28.58;;;16.08;;
4422;SDS011;2224;49.814;8.650;2024-01-10T02:06:45;33.13;;;17.23;;
4422;SDS011;2224;49.814;8.650;2024-01-10T02:09:10;29.57;;;16.80;;
4422;SDS011;2224;49.814;8.650;2024-01-10T02:11:35;28.03;;;17.27;;
4422;SDS011;2224;49.814;8.650;2024-01-10T02:14:01;31.27;;;17.10;;
4422;SDS011;2224;49.814;8.650;2024-01-10T02:16:26;24.17;;;14.57;;
4422;SDS011;2224;49.814;8.650;2024-01-10T02:18:52;25.20;;;15.47;;
4422;SDS011;2224;49.814;8.650;2024-01-10T02:21:21;28.73;;;17.80;;
4422;SDS011;2224;49.814;8.650;2024-01-10T02:23:46;29.85;;;16.77;;
4422;SDS011;2224;49.814;8.650;2024-01-10T02:26:12;28.50;;;17.17;;
4422;SDS011;2224;49.814;8.650;2024-01-10T02:28:37;28.80;;;16.53;;
4422;SDS011;2224;49.814;8.650;2024-01-10T02:31:02;28.03;;;16.87;;
4422;SDS011;2224;49.814;8.650;2024-01-10T02:33:28;31.33;;;16.97;;
4422;SDS011;2224;49.814;8.650;2024-01-10T02:35:53;28.33;;;17.40;;
4422;SDS011;2224;49.814;8.650;2024-01-10T02:38:18;30.27;;;16.20;;
4422;SDS011;2224;49.814;8.650;2024-01-10T02:40:46;28.73;;;16.50;;
4422;SDS011;2224;49.814;8.650;2024-01-10T02:43:11;31.70;;;17.03;;
4422;SDS011;2224;49.814;8.650;2024-01-10T02:45:36;28.20;;;17.47;;
4422;SDS011;2224;49.814;8.650;2024-01-10T02:48:02;28.90;;;18.63;;
4422;SDS011;2224;49.814;8.650;2024-01-10T02:50:27;26.40;;;16.50;;
4422;SDS011;2224;49.814;8.650;2024-01-10T02:52:53;33.80;;;17.70;;
4422;SDS011;2224;49.814;8.650;2024-01-10T02:55:18;29.87;;;18.10;;
4422;SDS011;2224;49.814;8.650;2024-01-10T02:57:43;28.50;;;17.07;;
4422;SDS011;2224;49.814;8.650;2024-01-10T03:00:09;30.63;;;19.07;;
4422;SDS011;2224;49.814;8.650;2024-01-10T03:02:34;27.87;;;17.27;;
4422;SDS011;2224;49.814;8.650;2024-01-10T03:05:00;29.20;;;17.83;;
4422;SDS011;2224;49.814;8.650;2024-01-10T03:07:25;28.20;;;18.20;;
4422;SDS011;2224;49.814;8.650;2024-01-10T03:09:50;29.37;;;17.73;;
4422;SDS011;2224;49.814;8.650;2024-01-10T03:12:16;26.00;;;17.17;;
4422;SDS011;2224;49.814;8.650;2024-01-10T03:14:41;29.30;;;16.80;;
4422;SDS011;2224;49.814;8.650;2024-01-10T03:17:06;32.57;;;17.37;;
4422;SDS011;2224;49.814;8.650;2024-01-10T03:19:32;26.40;;;16.57;;
4422;SDS011;2224;49.814;8.650;2024-01-10T03:21:57;30.00;;;17.03;;
4422;SDS011;2224;49.814;8.650;2024-01-10T03:24:22;25.27;;;17.03;;
4422;SDS011;2224;49.814;8.650;2024-01-10T03:26:51;29.90;;;18.20;;
4422;SDS011;2224;49.814;8.650;2024-01-10T03:29:17;29.30;;;17.47;;
4422;SDS011;2224;49.814;8.650;2024-01-10T03:31:42;29.83;;;17.60;;
4422;SDS011;2224;49.814;8.650;2024-01-10T03:34:07;29.03;;;17.37;;
4422;SDS011;2224;49.814;8.650;2024-01-10T03:36:32;29.77;;;17.30;;
4422;SDS011;2224;49.814;8.650;2024-01-10T03:38:58;29.67;;;16.40;;
4422;SDS011;2224;49.814;8.650;2024-01-10T03:41:23;28.93;;;17.73;;
4422;SDS011;2224;49.814;8.650;2024-01-10T03:43:48;33.77;;;17.33;;
4422;SDS011;2224;49.814;8.650;2024-01-10T03:46:15;32.92;;;20.30;;
4422;SDS011;2224;49.814;8.650;2024-01-10T03:48:40;35.37;;;20.57;;
4422;SDS011;2224;49.814;8.650;2024-01-10T03:51:12;33.70;;;16.95;;
4422;SDS011;2224;49.814;8.650;2024-01-10T03:53:38;29.65;;;19.33;;
4422;SDS011;2224;49.814;8.650;2024-01-10T03:56:04;30.73;;;18.27;;
4422;SDS011;2224;49.814;8.650;2024-01-10T03:58:30;31.25;;;19.05;;
4422;SDS011;2224;49.814;8.650;2024-01-10T04:00:55;30.00;;;19.20;;
4422;SDS011;2224;49.814;8.650;2024-01-10T04:03:20;32.13;;;19.00;;
4422;SDS011;2224;49.814;8.650;2024-01-10T04:05:46;33.13;;;18.40;;
4422;SDS011;2224;49.814;8.650;2024-01-10T04:08:11;28.87;;;17.27;;
4422;SDS011;2224;49.814;8.650;2024-01-10T04:10:36;34.07;;;20.67;;
4422;SDS011;2224;49.814;8.650;2024-01-10T04:13:02;34.00;;;18.43;;
4422;SDS011;2224;49.814;8.650;2024-01-10T04:15:27;27.97;;;17.50;;
4422;SDS011;2224;49.814;8.650;2024-01-10T04:17:52;31.70;;;17.90;;
4422;SDS011;2224;49.814;8.650;2024-01-10T04:20:18;36.57;;;19.47;;
4422;SDS011;2224;49.814;8.650;2024-01-10T04:22:43;31.47;;;18.90;;
4422;SDS011;2224;49.814;8.650;2024-01-10T04:25:08;35.67;;;18.50;;
4422;SDS011;2224;49.814;8.650;2024-01-10T04:27:36;31.05;;;19.45;;
4422;SDS011;2224;49.814;8.650;2024-01-10T04:30:01;34.00;;;18.30;;
4422;SDS011;2224;49.814;8.650;2024-01-10T04:32:26;30.47;;;18.70;;
4422;SDS011;2224;49.814;8.650;2024-01-10T04:34:51;35.27;;;19.00;;
4422;SDS011;2224;49.814;8.650;2024-01-10T04:37:17;34.47;;;19.00;;
4422;SDS011;2224;49.814;8.650;2024-01-10T04:39:43;34.40;;;18.80;;
4422;SDS011;2224;49.814;8.650;2024-01-10T04:42:08;31.13;;;19.17;;
4422;SDS011;2224;49.814;8.650;2024-01-10T04:44:35;29.95;;;17.85;;
4422;SDS011;2224;49.814;8.650;2024-01-10T04:47:01;29.53;;;18.47;;
4422;SDS011;2224;49.814;8.650;2024-01-10T04:49:26;32.87;;;19.17;;
4422;SDS011;2224;49.814;8.650;2024-01-10T04:51:51;28.50;;;18.67;;
4422;SDS011;2224;49.814;8.650;2024-01-10T04:54:17;36.17;;;19.47;;
4422;SDS011;2224;49.814;8.650;2024-01-10T04:56:42;34.87;;;19.00;;
4422;SDS011;2224;49.814;8.650;2024-01-10T04:59:07;37.43;;;19.87;;
4422;SDS011;2224;49.814;8.650;2024-01-10T05:01:33;35.23;;;23.07;;
4422;SDS011;2224;49.814;8.650;2024-01-10T05:03:58;33.80;;;20.33;;
4422;SDS011;2224;49.814;8.650;2024-01-10T05:06:24;37.83;;;21.97;;
4422;SDS011;2224;49.814;8.650;2024-01-10T05:08:49;32.43;;;18.90;;
4422;SDS011;2224;49.814;8.650;2024-01-10T05:11:15;36.23;;;20.57;;
4422;SDS011;2224;49.814;8.650;2024-01-10T05:13:41;29.80;;;19.15;;
4422;SDS011;2224;49.814;8.650;2024-01-10T05:16:06;35.50;;;19.87;;
4422;SDS011;2224;49.814;8.650;2024-01-10T05:18:32;41.40;;;21.70;;
4422;SDS011;2224;49.814;8.650;2024-01-10T05:20:58;35.70;;;21.77;;
4422;SDS011;2224;49.814;8.650;2024-01-10T05:23:23;35.90;;;21.60;;
4422;SDS011;2224;49.814;8.650;2024-01-10T05:25:49;34.23;;;19.43;;
4422;SDS011;2224;49.814;8.650;2024-01-10T05:28:14;32.43;;;19.17;;
4422;SDS011;2224;49.814;8.650;2024-01-10T05:30:40;37.37;;;19.47;;
4422;SDS011;2224;49.814;8.650;2024-01-10T05:33:06;37.97;;;19.40;;
4422;SDS011;2224;49.814;8.650;2024-01-10T05:35:31;34.17;;;19.50;;
4422;SDS011;2224;49.814;8.650;2024-01-10T05:37:56;38.83;;;21.90;;
4422;SDS011;2224;49.814;8.650;2024-01-10T05:40:22;35.17;;;20.03;;
4422;SDS011;2224;49.814;8.650;2024-01-10T05:42:48;34.70;;;20.40;;
4422;SDS011;2224;49.814;8.650;2024-01-10T05:45:14;37.93;;;19.23;;
4422;SDS011;2224;49.814;8.650;2024-01-10T05:47:42;35.90;;;20.83;;
4422;SDS011;2224;49.814;8.650;2024-01-10T05:50:07;33.13;;;20.23;;
4422;SDS011;2224;49.814;8.650;2024-01-10T05:52:33;33.87;;;20.73;;
4422;SDS011;2224;49.814;8.650;2024-01-10T05:54:58;35.70;;;20.80;;
4422;SDS011;2224;49.814;8.650;2024-01-10T05:57:26;35.75;;;19.33;;
4422;SDS011;2224;49.814;8.650;2024-01-10T05:59:51;41.63;;;21.47;;
4422;SDS011;2224;49.814;8.650;2024-01-10T06:02:20;32.42;;;20.35;;
4422;SDS011;2224;49.814;8.650;2024-01-10T06:04:46;32.33;;;19.70;;
4422;SDS011;2224;49.814;8.650;2024-01-10T06:07:11;37.50;;;20.73;;
4422;SDS011;2224;49.814;8.650;2024-01-10T06:09:36;34.97;;;19.60;;
4422;SDS011;2224;49.814;8.650;2024-01-10T06:12:02;34.40;;;20.20;;
4422;SDS011;2224;49.814;8.650;2024-01-10T06:14:28;34.60;;;21.10;;
4422;SDS011;2224;49.814;8.650;2024-01-10T06:16:53;33.37;;;19.33;;
4422;SDS011;2224;49.814;8.650;2024-01-10T06:19:18;36.93;;;19.43;;
4422;SDS011;2224;49.814;8.650;2024-01-10T06:21:44;29.33;;;19.30;;
4422;SDS011;2224;49.814;8.650;2024-01-10T06:24:09;36.83;;;19.57;;
4422;SDS011;2224;49.814;8.650;2024-01-10T06:26:34;32.70;;;19.70;;
4422;SDS011;2224;49.814;8.650;2024-01-10T06:28:59;32.07;;;20.10;;
4422;SDS011;2224;49.814;8.650;2024-01-10T06:31:25;36.40;;;21.50;;
4422;SDS011;2224;49.814;8.650;2024-01-10T06:33:50;36.90;;;20.90;;
4422;SDS011;2224;49.814;8.650;2024-01-10T06:36:16;37.60;;;20.23;;
4422;SDS011;2224;49.814;8.650;2024-01-10T06:38:41;34.47;;;20.80;;
4422;SDS011;2224;49.814;8.650;2024-01-10T06:41:09;39.67;;;21.63;;
4422;SDS011;2224;49.814;8.650;2024-01-10T06:43:36;33.05;;;20.38;;
4422;SDS011;2224;49.814;8.650;2024-01-10T06:46:01;36.53;;;19.73;;
4422;SDS011;2224;49.814;8.650;2024-01-10T06:48:28;41.65;;;20.27;;
4422;SDS011;2224;49.814;8.650;2024-01-10T06:50:54;33.88;;;21.20;;
4422;SDS011;2224;49.814;8.650;2024-01-10T06:53:19;38.80;;;21.90;;
4422;SDS011;2224;49.814;8.650;2024-01-10T06:55:45;33.33;;;18.93;;
4422;SDS011;2224;49.814;8.650;2024-01-10T06:58:10;37.37;;;20.90;;
4422;SDS011;2224;49.814;8.650;2024-01-10T07:00:36;39.30;;;20.80;;
4422;SDS011;2224;49.814;8.650;2024-01-10T07:03:03;35.90;;;21.58;;
4422;SDS011;2224;49.814;8.650;2024-01-10T07:05:28;36.80;;;22.63;;
4422;SDS011;2224;49.814;8.650;2024-01-10T07:07:56;34.70;;;21.05;;
4422;SDS011;2224;49.814;8.650;2024-01-10T07:10:27;36.95;;;21.48;;
4422;SDS011;2224;49.814;8.650;2024-01-10T07:12:54;39.70;;;23.50;;
4422;SDS011;2224;49.814;8.650;2024-01-10T07:15:19;35.83;;;21.63;;
4422;SDS011;2224;49.814;8.650;2024-01-10T07:17:45;43.67;;;22.27;;
4422;SDS011;2224;49.814;8.650;2024-01-10T07:20:10;42.80;;;21.57;;
4422;SDS011;2224;49.814;8.650;2024-01-10T07:22:37;41.25;;;21.92;;
4422;SDS011;2224;49.814;8.650;2024-01-10T07:25:06;33.67;;;19.77;;
4422;SDS011;2224;49.814;8.650;2024-01-10T07:27:32;36.00;;;20.63;;
4422;SDS011;2224;49.814;8.650;2024-01-10T07:29:57;39.43;;;20.70;;
4422;SDS011;2224;49.814;8.650;2024-01-10T07:32:23;36.60;;;20.80;;
4422;SDS011;2224;49.814;8.650;2024-01-10T07:34:48;36.40;;;21.70;;
4422;SDS011;2224;49.814;8.650;2024-01-10T07:37:13;38.00;;;21.37;;
4422;SDS011;2224;49.814;8.650;2024-01-10T07:39:41;34.92;;;20.80;;
4422;SDS011;2224;49.814;8.650;2024-01-10T07:42:07;30.10;;;20.03;;
4422;SDS011;2224;49.814;8.650;2024-01-10T07:44:32;39.40;;;23.50;;
4422;SDS011;2224;49.814;8.650;2024-01-10T07:46:58;35.50;;;21.00;;
4422;SDS011;2224;49.814;8.650;2024-01-10T07:49:23;35.63;;;20.23;;
4422;SDS011;2224;49.814;8.650;2024-01-10T07:51:49;33.90;;;20.53;;
4422;SDS011;2224;49.814;8.650;2024-01-10T07:54:14;34.10;;;21.60;;
4422;SDS011;2224;49.814;8.650;2024-01-10T07:56:40;38.37;;;22.07;;
4422;SDS011;2224;49.814;8.650;2024-01-10T07:59:05;43.50;;;21.37;;
4422;SDS011;2224;49.814;8.650;2024-01-10T08:01:31;41.67;;;21.60;;
4422;SDS011;2224;49.814;8.650;2024-01-10T08:03:56;36.30;;;20.80;;
4422;SDS011;2224;49.814;8.650;2024-01-10T08:06:21;40.27;;;22.37;;
4422;SDS011;2224;49.814;8.650;2024-01-10T08:08:47;38.23;;;20.00;;
4422;SDS011;2224;49.814;8.650;2024-01-10T08:11:12;37.80;;;20.93;;
4422;SDS011;2224;49.814;8.650;2024-01-10T08:13:37;30.20;;;20.13;;
4422;SDS011;2224;49.814;8.650;2024-01-10T08:16:03;35.53;;;21.07;;
4422;SDS011;2224;49.814;8.650;2024-01-10T08:18:28;47.37;;;24.20;;
4422;SDS011;2224;49.814;8.650;2024-01-10T08:20:55;42.50;;;21.73;;
4422;SDS011;2224;49.814;8.650;2024-01-10T08:23:20;42.17;;;22.57;;
4422;SDS011;2224;49.814;8.650;2024-01-10T08:25:46;32.93;;;22.00;;
4422;SDS011;2224;49.814;8.650;2024-01-10T08:28:11;36.60;;;20.07;;
4422;SDS011;2224;49.814;8.650;2024-01-10T08:30:38;34.83;;;20.83;;
4422;SDS011;2224;49.814;8.650;2024-01-10T08:33:03;33.50;;;20.43;;
4422;SDS011;2224;49.814;8.650;2024-01-10T08:35:29;37.13;;;20.80;;
4422;SDS011;2224;49.814;8.650;2024-01-10T08:37:55;33.00;;;20.53;;
4422;SDS011;2224;49.814;8.650;2024-01-10T08:40:20;33.07;;;21.30;;
4422;SDS011;2224;49.814;8.650;2024-01-10T08:42:48;38.33;;;21.75;;
4422;SDS011;2224;49.814;8.650;2024-01-10T08:45:13;33.03;;;20.33;;
4422;SDS011;2224;49.814;8.650;2024-01-10T08:47:40;37.60;;;20.77;;
4422;SDS011;2224;49.814;8.650;2024-01-10T08:50:05;37.97;;;20.27;;
4422;SDS011;2224;49.814;8.650;2024-01-10T08:52:33;37.22;;;20.75;;
4422;SDS011;2224;49.814;8.650;2024-01-10T08:54:59;37.97;;;20.97;;
4422;SDS011;2224;49.814;8.650;2024-01-10T08:57:27;34.05;;;21.60;;
4422;SDS011;2224;49.814;8.650;2024-01-10T08:59:52;45.27;;;22.30;;
4422;SDS011;2224;49.814;8.650;2024-01-10T09:02:18;38.73;;;21.20;;
4422;SDS011;2224;49.814;8.650;2024-01-10T09:04:43;35.47;;;22.50;;
4422;SDS011;2224;49.814;8.650;2024-01-10T09:07:09;35.77;;;20.80;;
4422;SDS011;2224;49.814;8.650;2024-01-10T09:09:34;33.90;;;18.77;;
4422;SDS011;2224;49.814;8.650;2024-01-10T09:12:00;32.03;;;20.33;;
4422;SDS011;2224;49.814;8.650;2024-01-10T09:14:25;42.27;;;20.20;;
4422;SDS011;2224;49.814;8.650;2024-01-10T09:16:50;34.93;;;21.50;;
4422;SDS011;2224;49.814;8.650;2024-01-10T09:19:17;32.80;;;19.65;;
4422;SDS011;2224;49.814;8.650;2024-01-10T09:21:42;36.40;;;20.37;;
4422;SDS011;2224;49.814;8.650;2024-01-10T09:24:07;35.93;;;21.00;;
4422;SDS011;2224;49.814;8.650;2024-01-10T09:26:36;34.30;;;19.10;;
4422;SDS011;2224;49.814;8.650;2024-01-10T09:29:01;33.57;;;19.60;;
4422;SDS011;2224;49.814;8.650;2024-01-10T09:31:26;35.00;;;19.30;;
4422;SDS011;2224;49.814;8.650;2024-01-10T09:33:52;35.17;;;20.57;;
4422;SDS011;2224;49.814;8.650;2024-01-10T09:36:17;30.33;;;18.73;;
4422;SDS011;2224;49.814;8.650;2024-01-10T09:38:42;30.73;;;19.63;;
4422;SDS011;2224;49.814;8.650;2024-01-10T09:41:08;34.20;;;22.67;;
4422;SDS011;2224;49.814;8.650;2024-01-10T09:43:35;28.83;;;18.83;;
4422;SDS011;2224;49.814;8.650;2024-01-10T09:46:00;33.77;;;19.53;;
4422;SDS011;2224;49.814;8.650;2024-01-10T09:48:29;28.17;;;18.33;;
4422;SDS011;2224;49.814;8.650;2024-01-10T09:50:55;33.33;;;20.00;;
4422;SDS011;2224;49.814;8.650;2024-01-10T09:53:23;30.60;;;19.90;;
4422;SDS011;2224;49.814;8.650;2024-01-10T09:55:49;31.35;;;21.33;;
4422;SDS011;2224;49.814;8.650;2024-01-10T09:58:14;30.73;;;17.70;;
4422;SDS011;2224;49.814;8.650;2024-01-10T10:00:40;34.80;;;19.13;;
4422;SDS011;2224;49.814;8.650;2024-01-10T10:03:09;26.97;;;18.33;;
4422;SDS011;2224;49.814;8.650;2024-01-10T10:05:38;32.95;;;19.38;;
4422;SDS011;2224;49.814;8.650;2024-01-10T10:08:06;29.45;;;19.25;;
4422;SDS011;2224;49.814;8.650;2024-01-10T10:10:32;29.33;;;18.60;;
4422;SDS011;2224;49.814;8.650;2024-01-10T10:12:57;28.13;;;18.23;;
4422;SDS011;2224;49.814;8.650;2024-01-10T10:15:23;31.80;;;19.43;;
4422;SDS011;2224;49.814;8.650;2024-01-10T10:17:52;34.60;;;19.65;;
4422;SDS011;2224;49.814;8.650;2024-01-10T10:20:25;33.08;;;19.40;;
4422;SDS011;2224;49.814;8.650;2024-01-10T10:25:26;32.42;;;19.00;;
4422;SDS011;2224;49.814;8.650;2024-01-10T10:27:51;32.95;;;18.98;;
4422;SDS011;2224;49.814;8.650;2024-01-10T10:30:17;27.20;;;16.97;;
4422;SDS011;2224;49.814;8.650;2024-01-10T10:32:42;31.93;;;20.00;;
4422;SDS011;2224;49.814;8.650;2024-01-10T10:35:08;35.80;;;19.70;;
4422;SDS011;2224;49.814;8.650;2024-01-10T10:37:34;29.20;;;18.40;;
4422;SDS011;2224;49.814;8.650;2024-01-10T10:39:59;39.77;;;20.63;;
4422;SDS011;2224;49.814;8.650;2024-01-10T10:42:24;32.83;;;19.43;;
4422;SDS011;2224;49.814;8.650;2024-01-10T10:44:53;32.95;;;19.63;;
4422;SDS011;2224;49.814;8.650;2024-01-10T10:47:22;39.45;;;20.48;;
4422;SDS011;2224;49.814;8.650;2024-01-10T10:49:51;32.10;;;18.75;;
4422;SDS011;2224;49.814;8.650;2024-01-10T10:52:19;31.75;;;19.20;;
4422;SDS011;2224;49.814;8.650;2024-01-10T10:54:45;30.13;;;19.20;;
4422;SDS011;2224;49.814;8.650;2024-01-10T10:57:11;30.08;;;19.55;;
4422;SDS011;2224;49.814;8.650;2024-01-10T10:59:37;29.53;;;19.23;;
4422;SDS011;2224;49.814;8.650;2024-01-10T11:02:03;32.80;;;19.20;;
4422;SDS011;2224;49.814;8.650;2024-01-10T11:04:30;30.42;;;17.70;;
4422;SDS011;2224;49.814;8.650;2024-01-10T11:06:56;32.10;;;20.70;;
4422;SDS011;2224;49.814;8.650;2024-01-10T11:09:21;31.33;;;18.40;;
4422;SDS011;2224;49.814;8.650;2024-01-10T11:25:18;29.50;;;19.15;;
4422;SDS011;2224;49.814;8.650;2024-01-10T11:27:44;29.93;;;17.60;;
4422;SDS011;2224;49.814;8.650;2024-01-10T11:30:12;30.88;;;19.33;;
4422;SDS011;2224;49.814;8.650;2024-01-10T11:32:37;28.37;;;17.80;;
4422;SDS011;2224;49.814;8.650;2024-01-10T11:35:11;29.93;;;17.63;;
4422;SDS011;2224;49.814;8.650;2024-01-10T11:37:44;31.13;;;20.27;;
4422;SDS011;2224;49.814;8.650;2024-01-10T11:40:11;33.60;;;19.55;;
4422;SDS011;2224;49.814;8.650;2024-01-10T11:42:46;34.03;;;19.60;;
4422;SDS011;2224;49.814;8.650;2024-01-10T11:45:45;27.33;;;17.33;;
4422;SDS011;2224;49.814;8.650;2024-01-10T11:48:06;31.27;;;19.10;;
4422;SDS011;2224;49.814;8.650;2024-01-10T11:50:32;26.67;;;16.52;;
4422;SDS011;2224;49.814;8.650;2024-01-10T11:52:57;28.13;;;18.53;;
4422;SDS011;2224;49.814;8.650;2024-01-10T11:58:19;27.83;;;17.08;;
4422;SDS011;2224;49.814;8.650;2024-01-10T12:00:45;24.57;;;16.70;;
4422;SDS011;2224;49.814;8.650;2024-01-10T12:03:11;28.23;;;16.98;;
4422;SDS011;2224;49.814;8.650;2024-01-10T12:05:37;28.67;;;17.58;;
4422;SDS011;2224;49.814;8.650;2024-01-10T12:08:06;27.17;;;15.97;;
4422;SDS011;2224;49.814;8.650;2024-01-10T12:10:32;30.67;;;18.20;;
4422;SDS011;2224;49.814;8.650;2024-01-10T12:13:01;31.10;;;18.95;;
4422;SDS011;2224;49.814;8.650;2024-01-10T12:15:29;26.95;;;15.57;;
4422;SDS011;2224;49.814;8.650;2024-01-10T12:17:55;25.87;;;16.03;;
4422;SDS011;2224;49.814;8.650;2024-01-10T12:20:20;25.93;;;15.80;;
4422;SDS011;2224;49.814;8.650;2024-01-10T12:22:46;29.70;;;18.37;;
4422;SDS011;2224;49.814;8.650;2024-01-10T12:25:11;28.67;;;17.37;;
4422;SDS011;2224;49.814;8.650;2024-01-10T12:27:36;29.93;;;17.67;;
4422;SDS011;2224;49.814;8.650;2024-01-10T12:30:02;27.47;;;17.23;;
4422;SDS011;2224;49.814;8.650;2024-01-10T12:32:28;27.93;;;16.37;;
4422;SDS011;2224;49.814;8.650;2024-01-10T12:35:02;23.17;;;15.50;;
4422;SDS011;2224;49.814;8.650;2024-01-10T12:37:29;25.30;;;16.35;;
4422;SDS011;2224;49.814;8.650;2024-01-10T12:39:54;23.37;;;13.33;;
4422;SDS011;2224;49.814;8.650;2024-01-10T12:42:21;21.27;;;14.55;;
4422;SDS011;2224;49.814;8.650;2024-01-10T12:44:47;27.57;;;16.13;;
4422;SDS011;2224;49.814;8.650;2024-01-10T12:47:22;22.77;;;15.13;;
4422;SDS011;2224;49.814;8.650;2024-01-10T12:49:49;22.83;;;14.48;;
4422;SDS011;2224;49.814;8.650;2024-01-10T12:52:14;25.13;;;16.03;;
4422;SDS011;2224;49.814;8.650;2024-01-10T12:54:40;23.27;;;15.10;;
4422;SDS011;2224;49.814;8.650;2024-01-10T12:57:05;27.83;;;15.07;;
4422;SDS011;2224;49.814;8.650;2024-01-10T12:59:31;26.30;;;16.58;;
4422;SDS011;2224;49.814;8.650;2024-01-10T13:01:57;21.30;;;13.83;;
4422;SDS011;2224;49.814;8.650;2024-01-10T13:04:22;25.83;;;14.27;;
4422;SDS011;2224;49.814;8.650;2024-01-10T13:06:48;25.17;;;15.43;;
4422;SDS011;2224;49.814;8.650;2024-01-10T13:09:13;21.30;;;13.70;;
4422;SDS011;2224;49.814;8.650;2024-01-10T13:11:38;22.17;;;15.20;;
4422;SDS011;2224;49.814;8.650;2024-01-10T13:14:04;24.70;;;15.93;;
4422;SDS011;2224;49.814;8.650;2024-01-10T13:16:29;28.60;;;17.87;;
4422;SDS011;2224;49.814;8.650;2024-01-10T13:18:55;23.23;;;15.67;;
4422;SDS011;2224;49.814;8.650;2024-01-10T13:21:22;26.48;;;16.48;;
4422;SDS011;2224;49.814;8.650;2024-01-10T13:23:47;28.20;;;16.27;;
4422;SDS011;2224;49.814;8.650;2024-01-10T13:26:13;25.60;;;15.60;;
4422;SDS011;2224;49.814;8.650;2024-01-10T13:28:38;25.63;;;16.30;;
4422;SDS011;2224;49.814;8.650;2024-01-10T13:31:03;22.93;;;15.00;;
4422;SDS011;2224;49.814;8.650;2024-01-10T13:33:29;22.97;;;14.60;;
4422;SDS011;2224;49.814;8.650;2024-01-10T13:35:55;26.60;;;16.10;;
4422;SDS011;2224;49.814;8.650;2024-01-10T13:38:20;25.00;;;16.87;;
4422;SDS011;2224;49.814;8.650;2024-01-10T13:40:46;24.27;;;16.43;;
4422;SDS011;2224;49.814;8.650;2024-01-10T13:43:11;25.63;;;15.60;;
4422;SDS011;2224;49.814;8.650;2024-01-10T13:45:37;27.77;;;16.80;;
4422;SDS011;2224;49.814;8.650;2024-01-10T13:48:04;20.67;;;14.80;;
4422;SDS011;2224;49.814;8.650;2024-01-10T13:50:29;23.70;;;14.77;;
4422;SDS011;2224;49.814;8.650;2024-01-10T13:52:55;24.47;;;16.23;;
4422;SDS011;2224;49.814;8.650;2024-01-10T13:55:20;23.37;;;15.87;;
4422;SDS011;2224;49.814;8.650;2024-01-10T13:57:45;23.97;;;16.23;;
4422;SDS011;2224;49.814;8.650;2024-01-10T14:00:11;20.30;;;13.60;;
4422;SDS011;2224;49.814;8.650;2024-01-10T14:02:39;26.52;;;16.13;;
4422;SDS011;2224;49.814;8.650;2024-01-10T14:05:05;25.77;;;14.90;;
4422;SDS011;2224;49.814;8.650;2024-01-10T14:07:31;30.37;;;16.10;;
4422;SDS011;2224;49.814;8.650;2024-01-10T14:10:00;27.05;;;17.13;;
4422;SDS011;2224;49.814;8.650;2024-01-10T14:12:26;25.30;;;16.20;;
4422;SDS011;2224;49.814;8.650;2024-01-10T14:14:52;26.83;;;15.70;;
4422;SDS011;2224;49.814;8.650;2024-01-10T14:17:17;25.13;;;16.63;;
4422;SDS011;2224;49.814;8.650;2024-01-10T14:19:43;25.97;;;16.33;;
4422;SDS011;2224;49.814;8.650;2024-01-10T14:22:09;23.00;;;15.90;;
4422;SDS011;2224;49.814;8.650;2024-01-10T14:24:35;24.53;;;15.00;;
4422;SDS011;2224;49.814;8.650;2024-01-10T14:27:00;29.73;;;17.73;;
4422;SDS011;2224;49.814;8.650;2024-01-10T14:29:25;32.37;;;20.63;;
4422;SDS011;2224;49.814;8.650;2024-01-10T14:31:50;28.97;;;16.67;;
4422;SDS011;2224;49.814;8.650;2024-01-10T14:34:16;36.53;;;17.70;;
4422;SDS011;2224;49.814;8.650;2024-01-10T14:36:41;27.20;;;16.03;;
4422;SDS011;2224;49.814;8.650;2024-01-10T14:39:06;27.63;;;15.87;;
4422;SDS011;2224;49.814;8.650;2024-01-10T14:41:32;25.13;;;15.00;;
4422;SDS011;2224;49.814;8.650;2024-01-10T14:43:59;60.00;;;31.30;;
4422;SDS011;2224;49.814;8.650;2024-01-10T14:46:24;39.73;;;20.90;;
4422;SDS011;2224;49.814;8.650;2024-01-10T14:48:50;30.30;;;16.60;;
4422;SDS011;2224;49.814;8.650;2024-01-10T14:51:15;26.07;;;15.93;;
4422;SDS011;2224;49.814;8.650;2024-01-10T14:53:41;22.07;;;15.17;;
4422;SDS011;2224;49.814;8.650;2024-01-10T14:56:06;24.27;;;16.00;;
4422;SDS011;2224;49.814;8.650;2024-01-10T14:58:32;25.73;;;15.20;;